Hauptseite
METAR-TAF:

METAR-TAF

Flughäfen :

Flughafen Köln/Bonn

Köln, Deutschland

Breite: 50-52N, Länge: 007-10E, Höhe: 91 m

Beobachtung

Neuester Wetterbericht von vor 14 Minuten, um 19:20 UTC
Wind 7 kt aus Südost
Temperatur 25°C
Luftfeuchtigkeit 36%
Luftdruck 1016 hPa
Sichtweite 10 km oder mehr
keine Wolken unter 1500 m und keine Kumulonimbus oder Gewitterwolken

METAR: EDDK 051920Z 14007KT CAVOK 25/09 Q1016 NOSIG

Zeit: 21:34 (19:34 UTC)

Prognose

Neuester Wetterbericht von vor 2 Stunden und 34 Minuten, um 17:00 UTC
Gültige Prognose vom 05 um 18 UTC bis 06 um 24 UTC
Wind 5 kt aus Ost/Südost
Sichtweite 10 km oder mehr
keine Wolken unter 1500 m und keine Kumulonimbus oder Gewitterwolken

TAF: EDDK 051700Z 0518/0624 12005KT CAVOK

Wetterbeobachtungen und Prognosen von mehr als 4000 Flughäfen (METAR und TAF Bericht).

Die verfügbaren Stationen werden durch gelbe und rote Markierungen auf der Karte dargestellt.

Führen Sie die Maus auf sie, um den Namen der Station zu sehen.

Darauf klicken, um die Beobachtung von Wetterbeobachtungen und Prognosen zu sehen.

Um die Karte zu ändern : klicken Sie auf den grünen Tasten mit einem schwarzen Kreuz Zum Vergrößern, auf den grünen Button mit einem Gedankenstrich zu verkleinern, oder auf die grünen Pfeile für benachbarte Karten.


METAR-TAF: